createdAt,value
2022-11-29T00:01:05.879Z,6.72
2022-11-29T00:03:33.287Z,5.70
2022-11-29T00:06:27.724Z,7.40
2022-11-29T00:08:55.772Z,6.47
2022-11-29T00:11:43.243Z,6.13
2022-11-29T00:14:13.131Z,5.20
2022-11-29T00:16:40.897Z,5.85
2022-11-29T00:19:08.809Z,6.38
2022-11-29T00:21:35.587Z,5.82
2022-11-29T00:24:02.467Z,5.53
2022-11-29T00:26:28.998Z,6.43
2022-11-29T00:28:56.441Z,7.22
2022-11-29T00:31:26.053Z,5.75
2022-11-29T00:33:53.271Z,6.05
2022-11-29T00:36:20.193Z,6.05
2022-11-29T00:38:46.720Z,6.85
2022-11-29T00:41:13.407Z,5.55
2022-11-29T00:43:40.439Z,6.45
2022-11-29T00:46:07.943Z,6.00
2022-11-29T00:48:35.527Z,5.90
2022-11-29T00:51:02.828Z,6.95
2022-11-29T00:53:29.463Z,7.88
2022-11-29T00:55:56.210Z,5.75
2022-11-29T00:58:22.876Z,6.65
2022-11-29T01:00:49.807Z,6.18
2022-11-29T01:03:17.112Z,6.63
2022-11-29T01:05:44.227Z,7.20
2022-11-29T01:08:12.137Z,7.50
2022-11-29T01:10:38.750Z,6.82
2022-11-29T01:13:05.327Z,5.95
2022-11-29T01:15:31.938Z,7.47
2022-11-29T01:17:58.563Z,6.93
2022-11-29T01:20:25.072Z,7.10
2022-11-29T01:22:51.639Z,7.05
2022-11-29T01:25:19.343Z,7.60
2022-11-29T01:27:46.143Z,6.38
2022-11-29T01:30:12.874Z,5.65
2022-11-29T01:32:39.317Z,6.50
2022-11-29T01:35:07.000Z,6.82
2022-11-29T01:37:33.710Z,7.57
2022-11-29T01:40:00.188Z,8.60
2022-11-29T01:42:26.835Z,6.70
2022-11-29T01:45:05.524Z,5.60
2022-11-29T01:47:32.651Z,9.95
2022-11-29T01:49:59.979Z,8.38
2022-11-29T01:52:31.692Z,9.45
2022-11-29T01:55:01.797Z,6.88
2022-11-29T01:57:29.228Z,6.70
2022-11-29T02:00:00.590Z,9.43
2022-11-29T02:02:36.943Z,8.98
2022-11-29T02:05:04.662Z,8.45
2022-11-29T02:07:31.874Z,9.80
2022-11-29T02:09:58.586Z,11.60
2022-11-29T02:12:38.321Z,13.38
2022-11-29T02:15:15.053Z,10.90
2022-11-29T02:18:10.402Z,13.00
2022-11-29T02:20:49.004Z,14.25
2022-11-29T02:23:43.080Z,14.68
2022-11-29T02:26:15.203Z,12.75
2022-11-29T02:29:23.205Z,10.82
2022-11-29T02:31:52.472Z,13.95
2022-11-29T02:35:00.027Z,9.25
2022-11-29T02:37:29.465Z,11.10
2022-11-29T02:40:28.284Z,12.43
2022-11-29T02:43:15.062Z,13.07
2022-11-29T02:45:58.193Z,15.15
2022-11-29T02:49:02.834Z,9.93
2022-11-29T02:51:56.948Z,11.10
2022-11-29T02:54:29.712Z,13.85
2022-11-29T02:57:16.067Z,11.73
2022-11-29T02:59:59.547Z,13.63
2022-11-29T03:02:42.578Z,13.10
2022-11-29T03:05:37.021Z,15.30
2022-11-29T03:08:11.249Z,15.63
2022-11-29T03:11:02.214Z,14.95
2022-11-29T03:13:40.902Z,16.38
2022-11-29T03:16:28.495Z,11.70
2022-11-29T03:19:05.729Z,11.77
2022-11-29T03:21:40.951Z,12.95
2022-11-29T03:24:25.857Z,18.70
2022-11-29T03:27:01.075Z,13.13
2022-11-29T03:29:43.078Z,13.27
2022-11-29T03:32:22.656Z,17.45
2022-11-29T03:35:13.199Z,14.13
2022-11-29T03:38:04.889Z,12.65
2022-11-29T03:40:55.589Z,15.35
2022-11-29T03:43:26.032Z,13.80
2022-11-29T03:45:56.040Z,18.92
2022-11-29T03:48:33.970Z,14.65
2022-11-29T03:51:07.658Z,15.73
2022-11-29T03:53:39.189Z,17.65
2022-11-29T03:56:33.119Z,17.02
2022-11-29T03:59:24.123Z,18.52
2022-11-29T04:02:15.583Z,18.42
2022-11-29T04:05:26.582Z,23.35
2022-11-29T04:08:04.986Z,23.00
2022-11-29T04:10:48.193Z,21.48
2022-11-29T04:13:57.692Z,20.23
2022-11-29T04:16:45.658Z,16.90
2022-11-29T04:19:24.976Z,18.75
2022-11-29T04:22:12.656Z,17.95
2022-11-29T04:24:49.442Z,13.52
2022-11-29T04:27:27.137Z,20.33
2022-11-29T04:30:01.222Z,17.85
2022-11-29T04:32:36.536Z,23.05
2022-11-29T04:35:12.068Z,13.35
2022-11-29T04:38:09.177Z,20.83
2022-11-29T04:41:00.563Z,20.38
2022-11-29T04:43:42.225Z,20.50
2022-11-29T04:46:24.007Z,13.45
2022-11-29T04:49:09.248Z,16.10
2022-11-29T04:51:47.846Z,16.63
2022-11-29T04:54:37.290Z,16.58
2022-11-29T04:57:20.743Z,19.85
2022-11-29T05:00:12.432Z,20.60
2022-11-29T05:02:56.535Z,19.90
2022-11-29T05:05:29.347Z,19.60
2022-11-29T05:08:29.163Z,15.98
2022-11-29T05:11:11.027Z,16.13
2022-11-29T05:14:06.208Z,15.98
2022-11-29T05:16:47.996Z,17.27
2022-11-29T05:19:29.737Z,17.08
2022-11-29T05:22:15.639Z,14.90
2022-11-29T05:24:55.056Z,18.83
2022-11-29T05:27:45.855Z,17.13
2022-11-29T05:30:21.269Z,15.18
2022-11-29T05:33:09.147Z,12.85
2022-11-29T05:35:44.882Z,14.52
2022-11-29T05:38:50.806Z,19.52
2022-11-29T05:41:41.861Z,17.50
2022-11-29T05:44:29.836Z,17.73
2022-11-29T05:47:01.914Z,11.55
2022-11-29T05:49:46.925Z,14.98
2022-11-29T05:52:41.520Z,13.88
2022-11-29T05:55:14.163Z,13.90
2022-11-29T05:57:53.576Z,13.45
2022-11-29T06:00:20.598Z,13.10
2022-11-29T06:03:14.435Z,14.95
2022-11-29T06:05:50.297Z,14.50
2022-11-29T06:08:31.452Z,18.67
2022-11-29T06:11:13.838Z,16.08
2022-11-29T06:14:02.604Z,14.93
2022-11-29T06:16:51.147Z,19.27
2022-11-29T06:19:54.914Z,14.18
2022-11-29T06:22:37.443Z,12.02
2022-11-29T06:25:10.194Z,14.50
2022-11-29T06:27:59.002Z,16.30
2022-11-29T06:30:51.427Z,16.70
2022-11-29T06:33:28.445Z,16.90
2022-11-29T06:36:12.259Z,15.55
2022-11-29T06:38:38.956Z,17.55
2022-11-29T06:41:06.280Z,17.25
2022-11-29T06:43:33.610Z,18.55
2022-11-29T06:46:32.864Z,14.40
2022-11-29T06:49:12.898Z,14.10
2022-11-29T06:52:11.475Z,16.58
2022-11-29T06:55:06.039Z,14.57
2022-11-29T06:57:48.005Z,15.43
2022-11-29T07:00:26.881Z,16.05
2022-11-29T07:03:14.504Z,15.07
2022-11-29T07:05:41.436Z,14.90
2022-11-29T07:08:15.659Z,14.48
2022-11-29T07:10:44.037Z,16.05
2022-11-29T07:13:13.706Z,15.13
2022-11-29T07:16:02.448Z,17.30
2022-11-29T07:18:55.187Z,16.80
2022-11-29T07:21:44.001Z,16.52
2022-11-29T07:24:22.775Z,16.10
2022-11-29T07:27:13.720Z,16.02
2022-11-29T07:29:56.268Z,15.52
2022-11-29T07:32:38.838Z,16.00
2022-11-29T07:35:16.959Z,14.82
2022-11-29T07:38:07.619Z,14.88
2022-11-29T07:40:51.938Z,15.18
2022-11-29T07:43:33.373Z,14.18
2022-11-29T07:46:00.503Z,18.70
2022-11-29T07:48:27.083Z,15.57
2022-11-29T07:50:55.372Z,16.60
2022-11-29T07:53:23.046Z,15.68
2022-11-29T07:55:50.282Z,15.65
2022-11-29T07:58:17.896Z,13.77
2022-11-29T08:00:45.108Z,16.65
2022-11-29T08:03:11.899Z,15.95
2022-11-29T08:05:38.652Z,17.85
2022-11-29T08:08:05.786Z,16.25
2022-11-29T08:10:32.488Z,18.10
2022-11-29T08:12:58.943Z,14.43
2022-11-29T08:15:25.839Z,15.55
2022-11-29T08:17:53.182Z,16.23
2022-11-29T08:20:20.019Z,20.60
2022-11-29T08:22:54.550Z,20.77
2022-11-29T08:25:21.072Z,18.45
2022-11-29T08:27:47.588Z,17.00
2022-11-29T08:30:14.222Z,18.77
2022-11-29T08:32:40.673Z,14.68
2022-11-29T08:35:07.370Z,16.73
2022-11-29T08:37:33.848Z,15.45
2022-11-29T08:40:00.433Z,17.23
2022-11-29T08:42:27.017Z,19.52
2022-11-29T08:44:53.498Z,18.85
2022-11-29T08:47:38.044Z,16.30
2022-11-29T08:50:14.624Z,15.57
2022-11-29T08:53:09.840Z,16.60
2022-11-29T08:55:42.947Z,16.20
2022-11-29T08:58:12.172Z,13.32
2022-11-29T09:00:39.463Z,15.35
2022-11-29T09:03:26.287Z,15.13
2022-11-29T09:05:53.109Z,16.17
2022-11-29T09:08:20.109Z,14.82
2022-11-29T09:10:47.476Z,13.55
2022-11-29T09:13:14.048Z,17.70
2022-11-29T09:15:42.379Z,12.75
2022-11-29T09:18:08.980Z,15.27
2022-11-29T09:20:35.508Z,14.88
2022-11-29T09:23:02.800Z,15.10
2022-11-29T09:25:29.319Z,14.57
2022-11-29T09:28:01.227Z,15.82
2022-11-29T09:30:30.505Z,13.43
2022-11-29T09:33:02.708Z,13.43
2022-11-29T09:35:29.650Z,14.52
2022-11-29T09:37:56.118Z,15.38
2022-11-29T09:40:30.681Z,15.30
2022-11-29T09:43:33.950Z,13.07
2022-11-29T09:46:22.288Z,15.27
2022-11-29T09:49:08.174Z,14.68
2022-11-29T09:51:53.465Z,15.40
2022-11-29T09:54:20.127Z,16.38
2022-11-29T09:56:51.727Z,16.30
2022-11-29T09:59:27.753Z,14.13
2022-11-29T10:02:00.164Z,15.90
2022-11-29T10:04:32.054Z,14.63
2022-11-29T10:07:08.576Z,14.30
2022-11-29T10:09:48.801Z,18.58
2022-11-29T10:12:34.923Z,15.07
2022-11-29T10:15:17.784Z,15.75
2022-11-29T10:18:10.952Z,15.05
2022-11-29T10:20:44.676Z,14.45
2022-11-29T10:23:25.279Z,15.98
2022-11-29T10:25:54.302Z,17.98
2022-11-29T10:28:26.582Z,15.00
2022-11-29T10:31:08.583Z,16.17
2022-11-29T10:33:37.103Z,14.80
2022-11-29T10:36:30.902Z,15.77
2022-11-29T10:39:01.408Z,14.30
2022-11-29T10:41:28.200Z,13.27
2022-11-29T10:43:57.898Z,14.48
2022-11-29T10:46:32.256Z,16.63
2022-11-29T10:49:02.724Z,13.85
2022-11-29T10:51:30.158Z,14.35
2022-11-29T10:54:03.266Z,14.35
2022-11-29T10:56:37.540Z,12.35
2022-11-29T10:59:08.950Z,15.02
2022-11-29T11:01:42.932Z,13.23
2022-11-29T11:04:16.963Z,13.00
2022-11-29T11:06:51.448Z,15.98
2022-11-29T11:10:03.091Z,13.75
2022-11-29T11:12:32.110Z,13.73
2022-11-29T11:15:27.952Z,13.32
2022-11-29T11:17:59.766Z,14.82
2022-11-29T11:20:29.616Z,13.48
2022-11-29T11:23:03.603Z,12.40
2022-11-29T11:25:40.081Z,13.35
2022-11-29T11:28:22.244Z,12.50
2022-11-29T11:33:22.376Z,13.15
2022-11-29T11:36:09.492Z,11.82
2022-11-29T11:38:39.058Z,12.63
2022-11-29T11:41:23.694Z,13.77
2022-11-29T11:43:57.258Z,13.82
2022-11-29T11:46:48.162Z,14.93
2022-11-29T11:49:30.780Z,12.68
2022-11-29T11:52:01.139Z,12.63
2022-11-29T11:54:29.426Z,15.25
2022-11-29T11:56:56.232Z,16.08
2022-11-29T11:59:26.593Z,12.27
2022-11-29T12:01:53.355Z,12.43
2022-11-29T12:04:38.161Z,16.75
2022-11-29T12:07:45.036Z,17.33
2022-11-29T12:10:24.511Z,13.93
2022-11-29T12:12:52.616Z,11.93
2022-11-29T12:15:26.171Z,13.52
2022-11-29T12:18:01.012Z,11.82
2022-11-29T12:20:51.578Z,14.55
2022-11-29T12:23:44.962Z,12.25
2022-11-29T12:26:56.047Z,12.73
2022-11-29T12:29:18.459Z,12.80
2022-11-29T12:32:00.042Z,16.88
2022-11-29T12:34:29.439Z,12.90
2022-11-29T12:37:26.953Z,12.52
2022-11-29T12:40:08.711Z,10.98
2022-11-29T12:42:46.369Z,12.65
2022-11-29T12:45:22.666Z,15.70
2022-11-29T12:48:01.287Z,15.80
2022-11-29T12:50:38.190Z,16.35
2022-11-29T12:53:27.243Z,16.88
2022-11-29T12:56:06.921Z,10.48
2022-11-29T12:58:46.227Z,11.27
2022-11-29T13:01:51.206Z,13.90
2022-11-29T13:04:43.967Z,15.40
2022-11-29T13:07:10.905Z,18.42
2022-11-29T13:09:53.919Z,15.07
2022-11-29T13:12:38.081Z,16.08
2022-11-29T13:15:18.370Z,12.57
2022-11-29T13:18:14.396Z,12.55
2022-11-29T13:20:49.406Z,14.38
2022-11-29T13:23:45.859Z,16.33
2022-11-29T13:26:23.012Z,17.33
2022-11-29T13:28:50.574Z,15.05
2022-11-29T13:31:22.575Z,13.77
2022-11-29T13:34:07.868Z,17.42
2022-11-29T13:36:47.365Z,13.60
2022-11-29T13:39:35.727Z,14.15
2022-11-29T13:42:10.453Z,15.25
2022-11-29T13:44:46.896Z,17.15
2022-11-29T13:47:16.763Z,16.55
2022-11-29T13:50:04.852Z,18.00
2022-11-29T13:52:34.375Z,15.45
2022-11-29T13:55:28.924Z,14.82
2022-11-29T13:58:30.845Z,17.35
2022-11-29T14:01:12.499Z,18.00
2022-11-29T14:03:44.962Z,16.35
2022-11-29T14:06:14.500Z,15.85
2022-11-29T14:09:21.165Z,16.65
2022-11-29T14:11:58.923Z,14.18
2022-11-29T14:14:28.501Z,15.25
2022-11-29T14:17:03.756Z,15.38
2022-11-29T14:19:39.163Z,16.00
2022-11-29T14:22:17.022Z,15.10
2022-11-29T14:24:56.501Z,13.95
2022-11-29T14:27:22.954Z,14.60
2022-11-29T14:29:53.702Z,12.68
2022-11-29T14:32:46.537Z,13.77
2022-11-29T14:35:13.163Z,12.50
2022-11-29T14:37:59.575Z,14.18
2022-11-29T14:40:50.380Z,13.23
2022-11-29T14:43:22.549Z,14.60
2022-11-29T14:46:29.042Z,11.05
2022-11-29T14:48:56.025Z,12.35
2022-11-29T14:51:29.043Z,15.73
2022-11-29T14:54:15.939Z,18.60
2022-11-29T14:56:44.872Z,13.75
2022-11-29T14:59:49.039Z,12.73
2022-11-29T15:02:32.980Z,11.93
2022-11-29T15:05:28.803Z,13.43
2022-11-29T15:08:14.304Z,14.48
2022-11-29T15:10:47.227Z,15.73
2022-11-29T15:13:18.822Z,15.48
2022-11-29T15:15:57.747Z,13.30
2022-11-29T15:18:45.478Z,13.48
2022-11-29T15:21:18.032Z,13.60
2022-11-29T15:23:44.666Z,13.93
2022-11-29T15:26:21.562Z,15.23
2022-11-29T15:28:48.036Z,13.98
2022-11-29T15:31:18.825Z,13.23
2022-11-29T15:33:48.594Z,12.93
2022-11-29T15:36:21.291Z,12.48
2022-11-29T15:38:55.245Z,13.57
2022-11-29T15:41:28.983Z,9.77
2022-11-29T15:44:01.678Z,12.23
2022-11-29T15:46:30.460Z,14.27
2022-11-29T15:49:16.567Z,12.15
2022-11-29T15:51:45.585Z,12.05
2022-11-29T15:54:33.833Z,11.48
2022-11-29T15:57:04.879Z,11.23
2022-11-29T15:59:43.583Z,10.30
2022-11-29T16:02:18.332Z,11.98
2022-11-29T16:04:47.235Z,12.13
2022-11-29T16:07:14.493Z,11.95
2022-11-29T16:09:45.470Z,9.90
2022-11-29T16:12:15.148Z,12.63
2022-11-29T16:14:56.533Z,12.57
2022-11-29T16:17:31.558Z,11.68
2022-11-29T16:20:25.349Z,13.93
2022-11-29T16:23:16.149Z,11.43
2022-11-29T16:26:01.388Z,10.05
2022-11-29T16:28:34.662Z,10.50
2022-11-29T16:31:01.654Z,10.02
2022-11-29T16:33:28.296Z,10.32
2022-11-29T16:36:16.504Z,9.80
2022-11-29T16:39:07.859Z,9.93
2022-11-29T16:41:36.931Z,9.85
2022-11-29T16:44:05.771Z,9.27
2022-11-29T16:46:35.012Z,9.68
2022-11-29T16:49:23.351Z,8.75
2022-11-29T16:51:51.570Z,8.63
2022-11-29T16:54:22.126Z,8.73
2022-11-29T16:56:50.634Z,9.13
2022-11-29T16:59:26.826Z,8.75
2022-11-29T17:01:55.257Z,8.25
2022-11-29T17:04:24.246Z,8.85
2022-11-29T17:06:52.870Z,7.90
2022-11-29T17:09:23.129Z,9.63
2022-11-29T17:11:49.634Z,7.22
2022-11-29T17:14:16.169Z,7.22
2022-11-29T17:16:42.827Z,6.78
2022-11-29T17:19:12.355Z,7.85
2022-11-29T17:21:39.117Z,7.68
2022-11-29T17:24:06.539Z,6.80
2022-11-29T17:26:32.985Z,7.78
2022-11-29T17:28:59.467Z,7.05
2022-11-29T17:31:26.070Z,7.45
2022-11-29T17:33:53.176Z,8.63
2022-11-29T17:36:20.647Z,6.93
2022-11-29T17:38:47.971Z,7.55
2022-11-29T17:41:23.538Z,5.65
2022-11-29T17:43:54.750Z,6.88
2022-11-29T17:46:27.025Z,6.57
2022-11-29T17:48:54.259Z,7.03
2022-11-29T17:51:50.693Z,6.88
2022-11-29T17:54:10.182Z,8.13
2022-11-29T17:56:36.951Z,6.25
2022-11-29T17:59:04.748Z,7.60
2022-11-29T18:01:33.518Z,8.73
2022-11-29T18:04:02.090Z,6.22
2022-11-29T18:06:36.203Z,6.75
2022-11-29T18:09:05.027Z,9.10
2022-11-29T18:11:42.927Z,8.75
2022-11-29T18:14:11.575Z,8.00
2022-11-29T18:16:38.421Z,8.48
2022-11-29T18:19:07.910Z,6.93
2022-11-29T18:21:38.100Z,7.28
2022-11-29T18:24:06.595Z,7.85
2022-11-29T18:26:34.880Z,8.35
2022-11-29T18:29:01.648Z,7.78
2022-11-29T18:31:30.669Z,8.57
2022-11-29T18:34:00.115Z,8.98
2022-11-29T18:36:29.086Z,8.52
2022-11-29T18:38:57.729Z,8.45
2022-11-29T18:41:26.040Z,8.70
2022-11-29T18:44:13.633Z,9.15
2022-11-29T18:46:42.931Z,8.25
2022-11-29T18:49:12.244Z,8.95
2022-11-29T18:51:39.562Z,8.10
2022-11-29T18:54:06.511Z,9.38
2022-11-29T18:56:35.131Z,7.75
2022-11-29T18:59:07.863Z,7.07
2022-11-29T19:01:40.878Z,11.48
2022-11-29T19:04:09.269Z,10.85
2022-11-29T19:06:40.014Z,9.60
2022-11-29T19:09:11.167Z,9.88
2022-11-29T19:11:37.864Z,11.73
2022-11-29T19:14:11.066Z,10.00
2022-11-29T19:16:39.567Z,10.20
2022-11-29T19:19:06.520Z,9.88
2022-11-29T19:21:34.317Z,10.18
2022-11-29T19:24:03.418Z,11.20
2022-11-29T19:26:31.555Z,11.45
2022-11-29T19:29:00.051Z,9.18
2022-11-29T19:31:27.293Z,8.65
2022-11-29T19:33:55.056Z,10.50
2022-11-29T19:36:24.383Z,11.57
2022-11-29T19:38:53.763Z,10.77
2022-11-29T19:41:26.645Z,9.27
2022-11-29T19:43:55.385Z,11.55
2022-11-29T19:46:25.767Z,12.98
2022-11-29T19:48:53.833Z,9.88
2022-11-29T19:51:21.183Z,9.65
2022-11-29T19:53:48.217Z,11.15
2022-11-29T19:56:16.370Z,10.75
2022-11-29T19:58:44.117Z,10.75
2022-11-29T20:01:16.995Z,11.88
2022-11-29T20:03:45.052Z,9.23
2022-11-29T20:06:13.378Z,10.98
2022-11-29T20:08:40.808Z,10.90
2022-11-29T20:11:13.635Z,12.07
2022-11-29T20:13:41.874Z,8.73
2022-11-29T20:16:11.233Z,10.57
2022-11-29T20:18:41.806Z,11.80
2022-11-29T20:21:13.980Z,10.85
2022-11-29T20:23:42.209Z,10.23
2022-11-29T20:26:15.371Z,11.65
2022-11-29T20:28:42.557Z,10.13
2022-11-29T20:31:15.290Z,10.20
2022-11-29T20:33:43.519Z,9.88
2022-11-29T20:36:21.954Z,11.18
2022-11-29T20:38:51.842Z,12.32
2022-11-29T20:41:27.222Z,9.60
2022-11-29T20:43:59.815Z,12.73
2022-11-29T20:46:26.811Z,10.85
2022-11-29T20:48:53.967Z,12.13
2022-11-29T20:51:32.144Z,12.95
2022-11-29T20:53:58.937Z,11.93
2022-11-29T20:56:27.494Z,11.15
2022-11-29T20:58:54.459Z,12.55
2022-11-29T21:01:20.979Z,10.15
2022-11-29T21:03:47.559Z,10.82
2022-11-29T21:06:14.091Z,10.82
2022-11-29T21:08:40.705Z,11.02
2022-11-29T21:11:12.212Z,9.57
2022-11-29T21:13:39.226Z,11.80
2022-11-29T21:16:06.198Z,11.52
2022-11-29T21:18:34.342Z,11.73
2022-11-29T21:21:00.774Z,9.30
2022-11-29T21:23:39.002Z,12.52
2022-11-29T21:26:20.251Z,13.05
2022-11-29T21:28:56.970Z,11.90
2022-11-29T21:31:25.187Z,13.48
2022-11-29T21:33:52.030Z,12.60
2022-11-29T21:36:19.002Z,11.10
2022-11-29T21:38:49.755Z,10.05
2022-11-29T21:41:20.490Z,10.10
2022-11-29T21:46:33.623Z,10.48
2022-11-29T21:49:00.207Z,10.32
2022-11-29T21:51:26.699Z,12.82
2022-11-29T21:53:53.166Z,12.90
2022-11-29T21:56:19.733Z,10.45
2022-11-29T21:58:46.205Z,13.00
2022-11-29T22:01:15.439Z,13.85
2022-11-29T22:03:42.900Z,11.23
2022-11-29T22:06:14.826Z,11.48
2022-11-29T22:11:11.911Z,12.35
2022-11-29T22:13:59.377Z,10.80
2022-11-29T22:16:26.080Z,13.02
2022-11-29T22:18:52.711Z,14.00
2022-11-29T22:21:19.512Z,14.18
2022-11-29T22:23:45.987Z,12.15
2022-11-29T22:26:12.822Z,12.10
2022-11-29T22:28:39.336Z,10.80
2022-11-29T22:31:10.839Z,16.08
2022-11-29T22:33:37.995Z,9.38
2022-11-29T22:36:06.838Z,11.60
2022-11-29T22:38:34.103Z,11.27
2022-11-29T22:41:11.592Z,13.30
2022-11-29T22:43:39.757Z,11.90
2022-11-29T22:46:18.638Z,11.88
2022-11-29T22:48:47.137Z,13.65
2022-11-29T22:51:17.384Z,12.55
2022-11-29T22:53:51.310Z,11.95
2022-11-29T22:56:18.789Z,10.95
2022-11-29T22:58:45.777Z,12.88
2022-11-29T23:01:18.342Z,14.68
2022-11-29T23:03:51.684Z,12.25
2022-11-29T23:06:38.799Z,10.77
2022-11-29T23:09:12.035Z,13.48
2022-11-29T23:11:39.071Z,11.60
2022-11-29T23:14:05.670Z,11.90
2022-11-29T23:16:32.898Z,11.40
2022-11-29T23:19:00.833Z,10.35
2022-11-29T23:21:33.273Z,15.60
2022-11-29T23:24:00.914Z,13.52
2022-11-29T23:26:38.866Z,13.60
2022-11-29T23:29:10.984Z,16.08
2022-11-29T23:31:37.971Z,13.43
2022-11-29T23:34:05.309Z,15.77
2022-11-29T23:36:32.193Z,15.68
2022-11-29T23:38:58.768Z,15.75
2022-11-29T23:41:25.351Z,15.55
2022-11-29T23:43:51.841Z,15.57
2022-11-29T23:46:21.264Z,13.27
2022-11-29T23:48:48.420Z,16.73
2022-11-29T23:51:15.463Z,15.35
2022-11-29T23:53:42.328Z,15.80
2022-11-29T23:56:15.280Z,14.07
2022-11-29T23:58:42.481Z,15.30
